Time;durP1;ratioP1;P1;durP2;ratioP2;P2;SDS_P1;SDS_P2;PMS_P1;PMS_P2;Temp;Humidity;BMP_temperature;BMP_pressure;BME280_temperature;BME280_humidity;BME280_pressure;Samples;Min_cycle;Max_cycle;Signal;HPM_P1;HPM_P2
2023/03/21 00:00:34;;;;;;;228.10;62.10;;;8.80;99.90;;;;;;5113017;28;20294;-50
2023/03/21 00:03:02;;;;;;;334.87;90.47;;;8.90;99.90;;;;;;5112515;28;20246;-51
2023/03/21 00:05:31;;;;;;;166.57;46.63;;;8.90;99.90;;;;;;5113136;28;20223;-49
2023/03/21 00:07:59;;;;;;;679.87;172.40;;;8.90;99.90;;;;;;5113176;28;20215;-50
2023/03/21 00:10:29;;;;;;;248.77;62.47;;;8.90;99.90;;;;;;5113446;28;20233;-51
2023/03/21 00:13:18;;;;;;;767.67;177.73;;;8.90;99.90;;;;;;5103360;28;20221;-49
2023/03/21 00:15:53;;;;;;;319.53;69.47;;;8.80;99.90;;;;;;5111543;28;20230;-50
2023/03/21 00:18:40;;;;;;;395.97;78.20;;;8.90;99.90;;;;;;5107496;28;20697;-51
2023/03/21 00:21:31;;;;;;;134.13;50.17;;;8.80;99.90;;;;;;5104546;28;20206;-51
2023/03/21 00:24:19;;;;;;;259.73;61.70;;;8.80;99.90;;;;;;5111302;28;20232;-49
2023/03/21 00:26:47;;;;;;;63.33;33.00;;;8.80;99.90;;;;;;5106408;28;20290;-50
2023/03/21 00:29:16;;;;;;;1033.03;270.80;;;8.80;99.90;;;;;;5108830;28;20574;-50
2023/03/21 00:31:44;;;;;;;590.30;153.43;;;8.80;99.90;;;;;;5096538;28;20231;-49
2023/03/21 00:34:12;;;;;;;398.80;77.90;;;8.80;99.90;;;;;;5094753;28;20309;-51
2023/03/21 00:36:41;;;;;;;761.67;177.93;;;8.80;99.90;;;;;;5109817;28;20760;-50
2023/03/21 00:39:10;;;;;;;310.30;78.17;;;8.90;99.90;;;;;;5112526;28;20208;-49
2023/03/21 00:41:38;;;;;;;526.43;170.77;;;8.90;99.90;;;;;;5109914;28;20203;-50
2023/03/21 00:44:12;;;;;;;256.70;68.90;;;8.90;99.90;;;;;;5102644;28;20284;-51
2023/03/21 00:46:42;;;;;;;649.67;177.73;;;8.80;99.90;;;;;;5112400;28;20737;-51
2023/03/21 00:49:24;;;;;;;362.13;93.13;;;8.80;99.90;;;;;;5112809;28;20206;-49
2023/03/21 00:51:52;;;;;;;379.53;93.87;;;8.80;99.90;;;;;;5097739;28;20207;-50
2023/03/21 00:54:24;;;;;;;407.57;109.30;;;8.80;99.90;;;;;;5112099;28;20765;-49
2023/03/21 00:56:53;;;;;;;474.57;131.57;;;8.80;99.90;;;;;;5111992;28;20731;-50
2023/03/21 00:59:21;;;;;;;90.77;32.17;;;8.70;99.90;;;;;;5111985;28;20244;-50
2023/03/21 01:01:52;;;;;;;689.00;191.93;;;8.70;99.90;;;;;;5112180;28;20211;-51
2023/03/21 01:04:25;;;;;;;795.47;146.70;;;8.70;99.90;;;;;;5102699;28;20239;-50
2023/03/21 01:06:54;;;;;;;309.17;97.27;;;8.70;99.90;;;;;;5111804;28;20208;-50
2023/03/21 01:09:24;;;;;;;669.43;171.80;;;8.70;99.90;;;;;;5112412;28;20277;-50
2023/03/21 01:11:52;;;;;;;560.03;145.97;;;8.80;99.90;;;;;;5111697;28;20295;-51
2023/03/21 01:14:22;;;;;;;312.80;74.47;;;8.80;99.90;;;;;;5112272;28;20224;-49
2023/03/21 01:16:53;;;;;;;614.83;134.40;;;8.70;99.90;;;;;;5110428;28;20207;-50
2023/03/21 01:19:24;;;;;;;169.10;50.90;;;8.70;99.90;;;;;;5108192;28;20295;-50
2023/03/21 01:22:12;;;;;;;278.00;106.80;;;8.80;99.90;;;;;;5107006;28;20599;-50
2023/03/21 01:24:40;;;;;;;247.10;69.90;;;8.80;99.90;;;;;;5111706;28;20312;-50
2023/03/21 01:27:22;;;;;;;47.50;25.17;;;8.70;99.90;;;;;;5109674;28;20207;-51
2023/03/21 01:29:50;;;;;;;228.27;69.63;;;8.80;99.90;;;;;;5099479;28;20211;-51
2023/03/21 01:32:19;;;;;;;703.37;131.60;;;8.80;99.90;;;;;;5100781;28;20204;-50
2023/03/21 01:34:47;;;;;;;238.20;96.67;;;8.80;99.90;;;;;;5108534;28;20227;-50
2023/03/21 01:37:16;;;;;;;426.60;103.27;;;8.80;99.90;;;;;;5107015;28;20769;-51
2023/03/21 01:39:45;;;;;;;655.63;170.57;;;8.80;99.90;;;;;;5111570;28;20208;-51
2023/03/21 01:42:14;;;;;;;63.87;30.10;;;8.80;99.90;;;;;;5111231;28;20215;-50
2023/03/21 01:44:53;;;;;;;74.80;48.33;;;8.80;99.90;;;;;;5111006;28;20783;-50
2023/03/21 01:47:23;;;;;;;224.33;56.97;;;8.90;99.90;;;;;;5111588;28;20208;-50
2023/03/21 01:49:53;;;;;;;44.80;29.43;;;8.80;99.90;;;;;;5111449;28;20296;-50
2023/03/21 01:52:24;;;;;;;215.67;47.97;;;8.80;99.90;;;;;;5110925;28;20743;-51
2023/03/21 01:55:10;;;;;;;149.20;39.90;;;8.80;99.90;;;;;;5111067;28;20231;-51
2023/03/21 01:57:43;;;;;;;495.20;109.60;;;8.80;99.90;;;;;;5111130;28;20651;-50
2023/03/21 02:00:31;;;;;;;363.10;97.47;;;8.80;99.90;;;;;;5105982;28;20661;-50
2023/03/21 02:03:07;;;;;;;128.17;52.97;;;8.80;99.90;;;;;;5102145;28;20211;-51
2023/03/21 02:05:54;;;;;;;527.87;128.77;;;8.80;99.90;;;;;;5109324;28;20234;-50
2023/03/21 02:08:23;;;;;;;983.50;300.87;;;8.80;99.90;;;;;;5111191;28;20238;-51
2023/03/21 02:11:07;;;;;;;484.63;129.63;;;8.70;99.90;;;;;;5110706;28;20210;-51
2023/03/21 02:13:35;;;;;;;515.67;146.67;;;8.80;99.90;;;;;;5110608;28;20211;-49
2023/03/21 02:16:12;;;;;;;573.27;154.23;;;8.80;99.90;;;;;;5111029;28;20203;-51
2023/03/21 02:18:49;;;;;;;196.43;63.40;;;8.80;99.90;;;;;;5099726;28;20234;-50
2023/03/21 02:21:59;;;;;;;566.97;119.70;;;8.80;99.90;;;;;;5110925;28;20199;-50
2023/03/21 02:25:03;;;;;;;221.77;71.27;;;8.80;99.90;;;;;;5076392;28;20273;-51
2023/03/21 02:27:53;;;;;;;702.50;198.20;;;8.70;99.90;;;;;;5086265;28;20204;-50
2023/03/21 02:30:55;;;;;;;541.73;123.33;;;8.70;99.90;;;;;;5106861;28;20295;-51
2023/03/21 02:33:52;;;;;;;176.70;51.80;;;8.70;99.90;;;;;;5080241;28;20229;-49
2023/03/21 02:36:30;;;;;;;154.07;41.20;;;8.70;99.90;;;;;;5109936;28;20229;-51
2023/03/21 02:39:11;;;;;;;304.13;101.30;;;8.80;99.90;;;;;;5110446;28;20222;-51
2023/03/21 02:41:47;;;;;;;699.33;197.90;;;8.80;99.90;;;;;;5110472;28;20228;-50
2023/03/21 02:44:22;;;;;;;701.30;167.43;;;8.70;99.90;;;;;;5110458;28;20503;-50
2023/03/21 02:46:55;;;;;;;134.23;48.83;;;8.80;99.90;;;;;;5109849;28;20683;-50
2023/03/21 02:49:39;;;;;;;697.17;166.93;;;8.80;99.90;;;;;;5110241;28;20199;-51
2023/03/21 02:52:09;;;;;;;485.73;112.60;;;8.70;99.90;;;;;;5107790;28;20201;-50
2023/03/21 02:54:50;;;;;;;1022.37;222.80;;;8.70;99.90;;;;;;5103574;28;20317;-50
2023/03/21 02:57:19;;;;;;;216.37;79.23;;;8.70;99.90;;;;;;5096088;28;20207;-50
2023/03/21 02:59:49;;;;;;;89.43;46.40;;;8.70;99.90;;;;;;5103941;28;20267;-50
2023/03/21 03:02:27;;;;;;;77.03;39.17;;;8.70;99.90;;;;;;5082253;28;20234;-51
2023/03/21 03:04:55;;;;;;;622.73;156.67;;;8.70;99.90;;;;;;5109774;28;20308;-50
2023/03/21 03:07:37;;;;;;;163.27;56.77;;;8.70;99.90;;;;;;5109931;28;20256;-51
2023/03/21 03:10:17;;;;;;;306.40;76.30;;;8.70;99.90;;;;;;5097016;28;20291;-51
2023/03/21 03:12:57;;;;;;;520.63;123.93;;;8.70;99.90;;;;;;5085612;28;20235;-51
2023/03/21 03:15:37;;;;;;;101.47;32.97;;;8.70;99.90;;;;;;5109521;28;20281;-50
2023/03/21 03:18:14;;;;;;;565.07;161.07;;;8.70;99.90;;;;;;5109440;28;20288;-50
2023/03/21 03:20:53;;;;;;;92.33;40.40;;;8.70;99.90;;;;;;5109615;28;20231;-51
2023/03/21 03:23:28;;;;;;;256.03;69.00;;;8.70;99.90;;;;;;5109856;28;20199;-50
2023/03/21 03:26:03;;;;;;;140.43;58.33;;;8.70;99.90;;;;;;5109246;28;20207;-51
2023/03/21 03:28:37;;;;;;;103.27;36.83;;;8.70;99.90;;;;;;5108565;28;20223;-50
2023/03/21 03:31:07;;;;;;;418.63;125.00;;;8.70;99.90;;;;;;5108120;28;20290;-50
2023/03/21 03:33:41;;;;;;;349.13;96.20;;;8.70;99.90;;;;;;5097468;28;20283;-48
2023/03/21 03:36:13;;;;;;;229.80;73.17;;;8.60;99.90;;;;;;5109875;28;20231;-50
2023/03/21 03:39:00;;;;;;;659.43;188.30;;;8.70;99.90;;;;;;5099238;28;20223;-50
2023/03/21 03:41:30;;;;;;;251.13;72.50;;;8.70;99.90;;;;;;5109879;28;20210;-50
2023/03/21 03:44:18;;;;;;;310.70;85.83;;;8.70;99.90;;;;;;5109383;28;20608;-50
2023/03/21 03:46:52;;;;;;;250.20;69.73;;;8.70;99.90;;;;;;5098622;28;20238;-51
2023/03/21 03:49:24;;;;;;;693.07;165.87;;;8.70;99.90;;;;;;5108406;28;20255;-50
2023/03/21 03:51:57;;;;;;;284.63;69.27;;;8.70;99.90;;;;;;5107033;28;20243;-50
2023/03/21 03:54:29;;;;;;;320.83;103.57;;;8.70;99.90;;;;;;5100682;28;20224;-50
2023/03/21 03:57:00;;;;;;;278.33;94.17;;;8.70;99.90;;;;;;5106977;28;20223;-50
2023/03/21 03:59:28;;;;;;;243.93;73.73;;;8.70;99.90;;;;;;5088870;28;20208;-50
2023/03/21 04:01:56;;;;;;;801.73;175.63;;;8.70;99.90;;;;;;5088809;28;20232;-49
2023/03/21 04:04:28;;;;;;;738.00;165.73;;;8.70;99.90;;;;;;5088622;28;20274;-50
2023/03/21 04:06:56;;;;;;;281.07;88.17;;;8.70;99.90;;;;;;5088956;28;20223;-50
2023/03/21 04:09:27;;;;;;;526.53;117.20;;;8.70;99.90;;;;;;5088867;28;20692;-51
2023/03/21 04:12:11;;;;;;;526.10;115.10;;;8.60;99.90;;;;;;5088692;28;20568;-50
2023/03/21 04:14:40;;;;;;;309.40;101.53;;;8.60;99.90;;;;;;5088973;28;20729;-50
2023/03/21 04:17:14;;;;;;;524.30;121.37;;;8.50;99.90;;;;;;5088853;28;20207;-51
2023/03/21 04:19:44;;;;;;;52.07;34.73;;;8.40;99.90;;;;;;5088666;28;20277;-50
2023/03/21 04:22:12;;;;;;;184.20;57.63;;;8.30;99.90;;;;;;5088919;28;20285;-49
2023/03/21 04:24:41;;;;;;;136.90;61.87;;;8.30;99.90;;;;;;5087950;28;20224;-50
2023/03/21 04:27:12;;;;;;;228.97;56.63;;;8.20;99.90;;;;;;5088741;28;20254;-50
2023/03/21 04:29:40;;;;;;;48.63;33.13;;;8.20;99.90;;;;;;5088807;28;20231;-50
2023/03/21 04:32:15;;;;;;;83.20;40.80;;;8.10;99.90;;;;;;5088565;28;20205;-50
2023/03/21 04:34:48;;;;;;;159.10;49.13;;;8.10;99.90;;;;;;5088389;28;20230;-50
2023/03/21 04:37:17;;;;;;;61.63;37.73;;;8.10;99.90;;;;;;5088353;28;20236;-49
2023/03/21 04:39:46;;;;;;;381.97;96.17;;;8.10;99.90;;;;;;5088244;28;20224;-49
2023/03/21 04:42:17;;;;;;;46.47;29.90;;;8.20;99.90;;;;;;5088379;28;20208;-50
2023/03/21 04:44:46;;;;;;;322.47;106.77;;;8.20;99.90;;;;;;5088390;28;20313;-50
2023/03/21 04:47:15;;;;;;;309.77;80.67;;;8.30;99.90;;;;;;5088384;28;20257;-50
2023/03/21 04:49:43;;;;;;;1004.17;319.77;;;8.30;99.90;;;;;;5088417;28;20216;-50
2023/03/21 04:52:11;;;;;;;307.93;64.33;;;8.30;99.90;;;;;;5092274;28;20295;-50
2023/03/21 04:54:39;;;;;;;81.17;47.90;;;8.30;99.90;;;;;;5091884;28;20227;-50
2023/03/21 04:57:08;;;;;;;460.10;138.27;;;8.20;99.90;;;;;;5091423;28;20204;-49
2023/03/21 04:59:38;;;;;;;443.20;98.63;;;8.10;99.90;;;;;;5091563;28;20225;-50
2023/03/21 05:02:06;;;;;;;229.70;81.30;;;8.10;99.90;;;;;;5091873;28;20319;-50
2023/03/21 05:04:34;;;;;;;312.77;79.07;;;8.10;99.90;;;;;;5091658;28;20779;-50
2023/03/21 05:07:02;;;;;;;43.33;26.80;;;8.10;99.90;;;;;;5091736;28;20220;-50
2023/03/21 05:09:30;;;;;;;325.43;89.53;;;8.10;99.90;;;;;;5091572;28;20292;-50
2023/03/21 05:11:58;;;;;;;239.87;56.67;;;8.10;99.90;;;;;;5077575;28;20262;-50
2023/03/21 05:14:27;;;;;;;703.40;178.93;;;8.10;99.90;;;;;;5091505;28;20232;-51
2023/03/21 05:16:56;;;;;;;390.07;90.43;;;8.10;99.90;;;;;;5091383;28;20200;-50
2023/03/21 05:19:33;;;;;;;154.23;57.60;;;8.10;99.90;;;;;;5091092;28;20236;-48
2023/03/21 05:22:04;;;;;;;302.87;78.73;;;8.10;99.90;;;;;;5091047;28;20212;-50
2023/03/21 05:24:33;;;;;;;243.67;92.07;;;8.10;99.90;;;;;;5091780;28;20235;-50
2023/03/21 05:27:02;;;;;;;139.33;48.43;;;8.10;99.90;;;;;;5091204;28;20260;-51
2023/03/21 05:29:31;;;;;;;167.63;45.13;;;8.10;99.90;;;;;;5091045;28;20204;-50
2023/03/21 05:32:01;;;;;;;531.87;138.33;;;8.10;99.90;;;;;;5090748;28;20208;-50
2023/03/21 05:34:30;;;;;;;382.57;82.57;;;8.20;99.90;;;;;;5091077;28;20256;-50
2023/03/21 05:36:59;;;;;;;787.83;175.13;;;8.20;99.90;;;;;;5091131;28;20208;-49
2023/03/21 05:39:27;;;;;;;439.67;107.43;;;8.20;99.90;;;;;;5090775;28;20313;-50
2023/03/21 05:41:55;;;;;;;439.77;112.57;;;8.20;99.90;;;;;;5091013;28;20212;-50
2023/03/21 05:44:23;;;;;;;185.10;51.17;;;8.20;99.90;;;;;;5091022;28;20311;-50
2023/03/21 05:46:51;;;;;;;90.27;43.07;;;8.20;99.90;;;;;;5090974;28;20772;-50
2023/03/21 05:49:21;;;;;;;246.80;64.90;;;8.20;99.90;;;;;;5091046;28;20203;-50
2023/03/21 05:51:49;;;;;;;310.00;82.83;;;8.30;99.90;;;;;;5090907;28;20204;-50
2023/03/21 05:54:17;;;;;;;114.30;37.10;;;8.30;99.90;;;;;;5090408;28;20697;-49
2023/03/21 05:56:46;;;;;;;314.40;71.77;;;8.30;99.90;;;;;;5090981;28;20208;-50
2023/03/21 05:59:14;;;;;;;543.30;139.70;;;8.20;99.90;;;;;;5090661;28;20232;-50
2023/03/21 06:01:42;;;;;;;106.00;52.67;;;8.30;99.90;;;;;;5089800;28;20288;-50
2023/03/21 06:04:10;;;;;;;148.57;50.60;;;8.30;99.90;;;;;;5090315;28;20319;-49
2023/03/21 06:06:39;;;;;;;85.50;37.90;;;8.30;99.90;;;;;;5090361;28;20231;-50
2023/03/21 06:09:07;;;;;;;48.17;26.47;;;8.30;99.90;;;;;;5090782;28;20260;-51
2023/03/21 06:11:38;;;;;;;229.57;76.83;;;8.40;99.90;;;;;;5090382;28;20206;-51
2023/03/21 06:14:06;;;;;;;381.93;67.80;;;8.40;99.90;;;;;;5090464;28;20297;-49
2023/03/21 06:16:34;;;;;;;338.17;92.83;;;8.50;99.90;;;;;;5090295;28;20242;-49
2023/03/21 06:19:02;;;;;;;580.03;133.60;;;8.50;99.90;;;;;;5090448;28;20211;-50
2023/03/21 06:21:30;;;;;;;1123.27;245.53;;;8.50;99.90;;;;;;5089609;28;20327;-50
2023/03/21 06:24:00;;;;;;;864.27;258.20;;;8.60;99.90;;;;;;5089266;28;20242;-50
2023/03/21 06:26:28;;;;;;;1445.63;359.70;;;8.70;99.90;;;;;;5090217;28;20207;-49
2023/03/21 06:28:56;;;;;;;682.97;164.10;;;8.70;99.90;;;;;;5089836;28;20325;-50
2023/03/21 06:31:25;;;;;;;305.47;85.70;;;8.70;99.90;;;;;;5090457;28;20205;-50
2023/03/21 06:33:53;;;;;;;259.63;83.47;;;8.60;99.90;;;;;;5089464;28;20223;-49
2023/03/21 06:36:21;;;;;;;411.57;121.40;;;8.70;99.90;;;;;;5090121;28;20658;-50
2023/03/21 06:38:49;;;;;;;351.37;103.60;;;8.70;99.90;;;;;;5090143;28;20223;-50
2023/03/21 06:41:19;;;;;;;283.00;69.43;;;8.70;99.90;;;;;;5089967;28;20259;-50
2023/03/21 06:43:47;;;;;;;1522.83;403.43;;;8.80;99.90;;;;;;5089733;28;20280;-50
2023/03/21 06:46:15;;;;;;;597.23;128.80;;;8.80;99.90;;;;;;5089790;28;20208;-51
2023/03/21 06:48:44;;;;;;;314.87;89.83;;;8.80;99.90;;;;;;5089859;28;20205;-51
2023/03/21 06:51:13;;;;;;;452.37;83.20;;;8.80;99.90;;;;;;5089802;28;20243;-50
2023/03/21 06:53:41;;;;;;;670.93;175.73;;;8.80;99.90;;;;;;5089878;28;20298;-50
2023/03/21 06:56:10;;;;;;;944.47;227.30;;;8.90;99.90;;;;;;5089489;28;20261;-50
2023/03/21 06:58:40;;;;;;;949.67;162.50;;;9.00;99.90;;;;;;5088819;28;20253;-50
2023/03/21 07:01:08;;;;;;;1188.37;274.67;;;9.00;99.90;;;;;;5089637;28;20231;-51
2023/03/21 07:03:38;;;;;;;1098.07;270.37;;;9.20;99.90;;;;;;5089182;28;20791;-51
2023/03/21 07:06:10;;;;;;;1644.10;367.00;;;9.30;99.90;;;;;;5089401;28;20208;-51
2023/03/21 07:08:38;;;;;;;1557.23;350.30;;;9.40;99.90;;;;;;5089564;28;20212;-51
2023/03/21 07:11:08;;;;;;;1733.13;414.53;;;9.50;99.90;;;;;;5089245;28;20205;-51
2023/03/21 07:13:36;;;;;;;1862.40;480.80;;;9.60;99.90;;;;;;5088966;28;20711;-50
2023/03/21 07:16:07;;;;;;;1496.80;285.87;;;9.70;99.90;;;;;;5089041;28;20204;-51
2023/03/21 07:18:35;;;;;;;1586.07;296.57;;;9.80;99.90;;;;;;5073866;28;21398;-50
2023/03/21 07:21:04;;;;;;;1999.90;532.57;;;9.70;99.90;;;;;;5088649;28;20224;-50
2023/03/21 07:23:33;;;;;;;1999.90;495.43;;;9.70;99.90;;;;;;5088924;28;20754;-51
2023/03/21 07:26:01;;;;;;;1999.90;697.30;;;9.70;99.90;;;;;;5089212;28;20196;-51
2023/03/21 07:28:30;;;;;;;1855.23;438.40;;;9.60;99.90;;;;;;5089083;28;20257;-51
2023/03/21 07:31:00;;;;;;;1410.13;360.03;;;9.70;99.90;;;;;;5088830;28;20643;-50
2023/03/21 07:33:30;;;;;;;1393.37;283.93;;;9.70;99.90;;;;;;5089417;28;20256;-50
2023/03/21 07:35:59;;;;;;;578.60;100.13;;;9.70;99.90;;;;;;5088916;28;20212;-50
2023/03/21 07:38:29;;;;;;;444.47;94.40;;;9.80;99.90;;;;;;5088704;28;20204;-49
2023/03/21 07:40:59;;;;;;;1103.70;268.47;;;9.90;99.90;;;;;;5088718;28;20230;-50
2023/03/21 07:43:27;;;;;;;1999.90;618.20;;;10.00;99.90;;;;;;5088710;28;20705;-50
2023/03/21 07:45:57;;;;;;;1999.90;406.20;;;10.10;99.90;;;;;;5088601;28;20249;-50
2023/03/21 07:48:26;;;;;;;1999.90;419.40;;;10.20;99.90;;;;;;5088653;28;20290;-50
2023/03/21 07:50:56;;;;;;;1991.20;379.83;;;10.30;99.90;;;;;;5088341;28;20241;-50
2023/03/21 07:53:24;;;;;;;1999.90;383.77;;;10.40;99.90;;;;;;5088586;28;20290;-50
2023/03/21 07:55:54;;;;;;;1349.30;224.13;;;10.40;99.90;;;;;;5088213;28;20220;-51
2023/03/21 07:58:22;;;;;;;1999.90;600.57;;;10.30;99.90;;;;;;5088508;28;20244;-50
2023/03/21 08:00:51;;;;;;;1984.10;414.63;;;10.30;99.90;;;;;;5081493;28;20227;-50
2023/03/21 08:03:20;;;;;;;1325.87;244.07;;;10.30;99.90;;;;;;5086267;28;20287;-50
2023/03/21 08:05:48;;;;;;;1904.40;424.93;;;10.30;99.90;;;;;;5087150;28;20224;-50
2023/03/21 08:08:17;;;;;;;1583.07;287.07;;;10.40;99.90;;;;;;5088440;28;20284;-51
2023/03/21 08:10:46;;;;;;;1999.90;409.90;;;10.50;99.90;;;;;;5088270;28;20253;-51
2023/03/21 08:13:14;;;;;;;1939.30;456.83;;;10.60;99.90;;;;;;5088355;28;20243;-50
2023/03/21 08:15:42;;;;;;;1410.50;310.13;;;10.60;99.90;;;;;;5087627;28;20228;-50
2023/03/21 08:18:11;;;;;;;1999.90;655.80;;;10.90;99.90;;;;;;5088349;28;20637;-50
2023/03/21 08:20:40;;;;;;;1999.90;622.60;;;11.00;99.90;;;;;;5088700;28;20200;-51
2023/03/21 08:23:08;;;;;;;1999.90;738.70;;;11.10;99.90;;;;;;5088708;28;20216;-50
2023/03/21 08:25:37;;;;;;;1999.90;843.23;;;11.20;99.90;;;;;;5079033;28;20220;-51
2023/03/21 08:28:06;;;;;;;1999.90;719.80;;;11.30;99.90;;;;;;5094907;28;20212;-50
2023/03/21 08:30:34;;;;;;;1999.90;817.53;;;11.40;99.90;;;;;;5094686;28;20569;-51
2023/03/21 08:33:02;;;;;;;1999.90;672.27;;;11.50;99.90;;;;;;5095453;28;20319;-51
2023/03/21 08:35:31;;;;;;;1999.90;762.70;;;11.50;99.90;;;;;;5095228;28;20227;-51
2023/03/21 08:38:00;;;;;;;1999.90;683.10;;;11.60;99.90;;;;;;5093834;28;20204;-51
2023/03/21 08:40:28;;;;;;;1999.90;797.07;;;11.70;99.90;;;;;;5092453;28;20295;-51
2023/03/21 08:42:58;;;;;;;1999.90;933.47;;;11.80;99.90;;;;;;5091894;28;20224;-51
2023/03/21 08:45:26;;;;;;;1999.90;870.97;;;11.90;99.90;;;;;;5092361;28;20228;-50
2023/03/21 08:47:54;;;;;;;1999.90;801.70;;;11.90;99.90;;;;;;5092477;28;20203;-50
2023/03/21 08:50:25;;;;;;;1999.90;634.57;;;12.00;99.90;;;;;;5085059;28;20208;-49
2023/03/21 08:52:53;;;;;;;1999.90;643.67;;;12.10;99.90;;;;;;5082201;28;20245;-49
2023/03/21 08:55:21;;;;;;;1999.90;998.93;;;12.20;99.90;;;;;;5084973;28;20220;-49
2023/03/21 08:57:49;;;;;;;1999.90;972.10;;;12.30;99.90;;;;;;5092259;28;20225;-50
2023/03/21 09:00:21;;;;;;;1999.90;693.47;;;12.20;99.90;;;;;;5091773;28;20236;-50
2023/03/21 09:02:53;;;;;;;1999.90;720.50;;;12.20;99.90;;;;;;5091350;28;20299;-50
2023/03/21 09:05:22;;;;;;;1999.90;725.60;;;12.30;99.90;;;;;;5091505;28;20235;-51
2023/03/21 09:07:51;;;;;;;1999.90;703.87;;;12.20;99.90;;;;;;5091829;28;20627;-50
2023/03/21 09:10:22;;;;;;;1999.90;810.87;;;12.20;99.90;;;;;;5092034;28;20204;-50
2023/03/21 09:12:51;;;;;;;1999.90;656.57;;;12.30;99.90;;;;;;5091122;28;20215;-50
2023/03/21 09:15:23;;;;;;;1999.90;905.97;;;12.30;99.90;;;;;;5091633;28;20224;-51
2023/03/21 09:17:52;;;;;;;1999.90;999.90;;;12.40;99.90;;;;;;5091729;28;20266;-50
2023/03/21 09:20:29;;;;;;;1999.90;507.73;;;12.60;99.90;;;;;;5091655;28;20580;-51
2023/03/21 09:23:00;;;;;;;1999.90;823.80;;;12.80;99.90;;;;;;5091481;28;20219;-51
2023/03/21 09:25:29;;;;;;;1999.90;891.10;;;12.90;99.90;;;;;;5091073;28;20231;-50
2023/03/21 09:27:59;;;;;;;1999.90;945.43;;;13.00;99.90;;;;;;5090668;28;20200;-50
2023/03/21 09:30:30;;;;;;;1999.90;894.87;;;13.20;99.90;;;;;;5091256;28;20208;-51
2023/03/21 09:32:59;;;;;;;1999.90;869.90;;;13.30;99.90;;;;;;5091047;28;20279;-50
2023/03/21 09:35:28;;;;;;;1999.90;914.87;;;13.10;99.90;;;;;;5091121;28;20663;-50
2023/03/21 09:37:57;;;;;;;1999.90;755.77;;;13.00;99.90;;;;;;5090064;28;20208;-50
2023/03/21 09:40:45;;;;;;;1999.90;910.57;;;13.10;99.90;;;;;;5090615;28;20208;-50
2023/03/21 09:43:25;;;;;;;1999.90;974.90;;;13.10;99.90;;;;;;5090932;28;20224;-50
2023/03/21 09:46:01;;;;;;;1999.90;835.75;;;13.00;99.90;;;;;;5090815;28;20315;-50
2023/03/21 09:48:36;;;;;;;1999.90;699.93;;;12.90;99.90;;;;;;5089007;28;20219;-51
2023/03/21 09:51:23;;;;;;;1999.90;987.97;;;13.20;99.90;;;;;;5077362;28;20946;-51
2023/03/21 09:53:53;;;;;;;1999.90;643.37;;;13.20;99.90;;;;;;5090410;28;20252;-50
2023/03/21 09:56:25;;;;;;;1999.90;875.73;;;13.20;99.90;;;;;;5090861;28;20257;-51
2023/03/21 09:58:58;;;;;;;1999.90;962.60;;;13.20;99.90;;;;;;5090900;28;20212;-50
2023/03/21 10:01:31;;;;;;;1999.90;798.03;;;13.20;99.90;;;;;;5090554;28;20261;-50
2023/03/21 10:04:04;;;;;;;1999.90;999.90;;;13.10;99.90;;;;;;5090648;28;20671;-51
2023/03/21 10:06:34;;;;;;;1999.90;815.97;;;13.20;99.90;;;;;;5089177;28;20228;-50
2023/03/21 10:09:06;;;;;;;1999.90;750.57;;;13.10;99.90;;;;;;5090503;28;20209;-51
2023/03/21 10:11:41;;;;;;;1999.90;934.73;;;13.10;99.90;;;;;;5090399;28;20408;-50
2023/03/21 10:14:18;;;;;;;1999.90;908.67;;;13.00;99.90;;;;;;5090343;28;20746;-50
2023/03/21 10:16:53;;;;;;;1999.90;740.43;;;12.90;99.90;;;;;;5090160;28;20208;-50
2023/03/21 10:19:22;;;;;;;1999.90;640.30;;;13.00;99.90;;;;;;5090350;28;20966;-51
2023/03/21 10:21:51;;;;;;;1999.90;743.27;;;13.00;99.90;;;;;;5089932;28;20689;-50
2023/03/21 10:24:33;;;;;;;1999.90;861.50;;;13.00;99.90;;;;;;5090184;28;20232;-50
2023/03/21 10:27:02;;;;;;;1999.90;671.57;;;12.80;99.90;;;;;;5090044;28;20262;-51
2023/03/21 10:29:35;;;;;;;1999.90;994.10;;;12.80;99.90;;;;;;5090138;28;20209;-51
2023/03/21 10:32:08;;;;;;;1999.90;681.67;;;12.80;99.90;;;;;;5090220;28;20208;-50
2023/03/21 10:34:41;;;;;;;1999.90;643.07;;;12.80;99.90;;;;;;5089999;28;20224;-50
2023/03/21 10:37:11;;;;;;;1999.90;560.50;;;12.80;99.90;;;;;;5089993;28;20249;-50
2023/03/21 10:39:41;;;;;;;1999.90;578.83;;;12.90;99.90;;;;;;5089570;28;20303;-51
2023/03/21 10:42:20;;;;;;;1999.90;733.27;;;13.00;99.90;;;;;;5090063;28;20235;-50
2023/03/21 10:44:50;;;;;;;1999.90;841.97;;;12.90;99.90;;;;;;5072567;28;20228;-51
2023/03/21 10:47:22;;;;;;;1999.90;858.70;;;12.90;99.90;;;;;;5090021;28;20597;-51
2023/03/21 10:49:51;;;;;;;1999.90;837.27;;;12.90;99.90;;;;;;5089546;28;20212;-50
2023/03/21 10:52:38;;;;;;;1999.90;609.37;;;12.80;99.90;;;;;;5089745;28;20205;-50
2023/03/21 10:55:20;;;;;;;1999.90;459.80;;;13.00;99.90;;;;;;5089739;28;20260;-50
2023/03/21 10:57:48;;;;;;;1999.90;941.23;;;13.10;99.90;;;;;;5088772;28;20196;-51
2023/03/21 11:00:21;;;;;;;1999.90;758.97;;;13.10;99.90;;;;;;5089499;28;20298;-50
2023/03/21 11:02:52;;;;;;;1999.90;689.40;;;13.20;99.90;;;;;;5089444;28;20255;-51
2023/03/21 11:05:24;;;;;;;1999.90;709.77;;;13.10;99.90;;;;;;5089411;28;20232;-50
2023/03/21 11:08:05;;;;;;;1999.90;799.10;;;12.90;99.90;;;;;;5089191;28;20628;-51
2023/03/21 11:10:35;;;;;;;1999.90;885.47;;;12.90;99.90;;;;;;5089785;28;20235;-50
2023/03/21 11:13:16;;;;;;;1999.90;695.37;;;12.90;99.90;;;;;;5088571;28;20212;-50
2023/03/21 11:15:52;;;;;;;1999.90;933.37;;;12.80;99.90;;;;;;5089408;28;20306;-50
2023/03/21 11:18:24;;;;;;;1999.90;738.97;;;12.70;99.90;;;;;;5089037;28;20695;-50
2023/03/21 11:20:54;;;;;;;1999.90;703.63;;;12.50;99.90;;;;;;5089270;28;20254;-51
2023/03/21 11:23:28;;;;;;;1999.90;596.83;;;12.50;99.90;;;;;;5088819;28;20666;-51
2023/03/21 11:25:59;;;;;;;1999.90;524.60;;;12.60;99.90;;;;;;5089404;28;20216;-51
2023/03/21 11:28:36;;;;;;;1999.90;603.83;;;12.60;99.90;;;;;;5086246;28;20213;-50
2023/03/21 11:31:07;;;;;;;1941.50;377.63;;;12.60;99.90;;;;;;5078384;28;20203;-50
2023/03/21 11:33:40;;;;;;;1999.90;563.70;;;12.70;99.90;;;;;;5088077;28;20197;-50
2023/03/21 11:36:27;;;;;;;1999.90;885.53;;;12.70;99.90;;;;;;5088329;28;20299;-51
2023/03/21 11:38:58;;;;;;;1999.90;650.67;;;12.70;99.90;;;;;;5088618;28;20273;-50
2023/03/21 11:41:30;;;;;;;1999.90;677.27;;;12.60;99.90;;;;;;5089181;28;20216;-51
2023/03/21 11:43:59;;;;;;;1999.90;661.43;;;12.50;99.90;;;;;;5087909;28;20315;-49
2023/03/21 11:46:29;;;;;;;1999.90;759.90;;;12.60;99.90;;;;;;5089170;28;20205;-51
2023/03/21 11:49:00;;;;;;;1999.90;564.37;;;12.50;99.90;;;;;;5088622;28;20273;-51
2023/03/21 11:51:37;;;;;;;1999.90;397.60;;;12.50;99.90;;;;;;5087752;28;20206;-50
2023/03/21 11:54:12;;;;;;;1999.90;510.50;;;12.50;99.90;;;;;;5088352;28;21913;-51
2023/03/21 11:56:45;;;;;;;1999.90;678.20;;;12.60;99.90;;;;;;5089051;28;20203;-51
2023/03/21 11:59:34;;;;;;;1999.90;442.30;;;12.50;99.90;;;;;;5088472;28;20211;-50
2023/03/21 12:02:32;;;;;;;1999.90;468.60;;;12.60;99.90;;;;;;5092428;28;20216;-51
2023/03/21 12:05:05;;;;;;;1999.90;523.17;;;12.60;99.90;;;;;;5080758;28;20224;-50
2023/03/21 12:07:52;;;;;;;1999.90;674.87;;;12.60;99.90;;;;;;5092816;28;20199;-50
2023/03/21 12:10:35;;;;;;;1977.20;253.63;;;12.60;99.90;;;;;;5076389;28;20208;-51
2023/03/21 12:13:40;;;;;;;1999.90;382.13;;;12.50;99.90;;;;;;5087636;28;20223;-50
2023/03/21 12:16:24;;;;;;;1999.90;668.60;;;12.50;99.90;;;;;;5009820;28;20246;-50
2023/03/21 12:19:04;;;;;;;1999.90;477.43;;;12.30;99.90;;;;;;5074261;28;20222;-50
2023/03/21 12:21:43;;;;;;;1999.90;708.07;;;12.20;99.90;;;;;;5091907;28;20235;-52
2023/03/21 12:24:15;;;;;;;1999.90;718.43;;;12.10;99.90;;;;;;5092442;28;20232;-50
2023/03/21 12:26:52;;;;;;;1999.90;583.17;;;12.00;99.90;;;;;;5076314;28;20237;-50
2023/03/21 12:29:51;;;;;;;1999.90;293.30;;;12.00;99.90;;;;;;5092153;28;20245;-50
2023/03/21 12:32:30;;;;;;;1999.90;498.83;;;11.90;99.90;;;;;;5091315;28;20261;-50
2023/03/21 12:35:16;;;;;;;1999.90;452.67;;;11.80;99.90;;;;;;5091697;28;20300;-51
2023/03/21 12:37:55;;;;;;;1999.90;541.73;;;11.90;99.90;;;;;;5092225;28;20200;-50
2023/03/21 12:40:40;;;;;;;1999.90;507.30;;;11.80;99.90;;;;;;5092039;28;20215;-51